sensor_id;sensor_type;location;lat;lon;timestamp;pressure;altitude;pressure_sealevel;temperature;humidity
9277;BME280;4676;42.678;23.244;2023-05-09T00:01:04;94381.63;;;11.95;100.00
9277;BME280;4676;42.678;23.244;2023-05-09T00:03:31;94383.34;;;11.94;100.00
9277;BME280;4676;42.678;23.244;2023-05-09T00:05:59;94380.75;;;11.96;100.00
9277;BME280;4676;42.678;23.244;2023-05-09T00:08:26;94379.84;;;11.97;100.00
9277;BME280;4676;42.678;23.244;2023-05-09T00:10:53;94382.69;;;11.89;100.00
9277;BME280;4676;42.678;23.244;2023-05-09T00:13:20;94375.16;;;11.88;100.00
9277;BME280;4676;42.678;23.244;2023-05-09T00:15:47;94377.72;;;11.86;100.00
9277;BME280;4676;42.678;23.244;2023-05-09T00:18:14;94381.28;;;11.82;100.00
9277;BME280;4676;42.678;23.244;2023-05-09T00:20:42;94378.75;;;11.82;100.00
9277;BME280;4676;42.678;23.244;2023-05-09T00:23:10;94369.38;;;11.84;100.00
9277;BME280;4676;42.678;23.244;2023-05-09T00:25:37;94375.19;;;11.86;100.00
9277;BME280;4676;42.678;23.244;2023-05-09T00:28:03;94368.41;;;11.87;100.00
9277;BME280;4676;42.678;23.244;2023-05-09T00:30:30;94368.47;;;11.85;100.00
9277;BME280;4676;42.678;23.244;2023-05-09T00:32:57;94368.41;;;11.87;100.00
9277;BME280;4676;42.678;23.244;2023-05-09T00:35:24;94369.97;;;11.89;100.00
9277;BME280;4676;42.678;23.244;2023-05-09T00:37:50;94367.44;;;11.89;100.00
9277;BME280;4676;42.678;23.244;2023-05-09T00:40:19;94366.81;;;11.84;100.00
9277;BME280;4676;42.678;23.244;2023-05-09T00:42:45;94371.91;;;11.84;100.00
9277;BME280;4676;42.678;23.244;2023-05-09T00:45:12;94363.41;;;11.85;100.00
9277;BME280;4676;42.678;23.244;2023-05-09T00:47:39;94372.66;;;11.86;100.00
9277;BME280;4676;42.678;23.244;2023-05-09T00:50:07;94366.00;;;11.84;100.00
9277;BME280;4676;42.678;23.244;2023-05-09T00:52:35;94362.56;;;11.85;100.00
9277;BME280;4676;42.678;23.244;2023-05-09T00:55:01;94367.66;;;11.85;100.00
9277;BME280;4676;42.678;23.244;2023-05-09T00:57:30;94360.09;;;11.83;100.00
9277;BME280;4676;42.678;23.244;2023-05-09T00:59:57;94361.78;;;11.83;100.00
9277;BME280;4676;42.678;23.244;2023-05-09T01:02:23;94361.09;;;11.79;100.00
9277;BME280;4676;42.678;23.244;2023-05-09T01:04:50;94356.84;;;11.80;100.00
9277;BME280;4676;42.678;23.244;2023-05-09T01:07:21;94363.59;;;11.81;100.00
9277;BME280;4676;42.678;23.244;2023-05-09T01:09:59;94355.78;;;11.85;100.00
9277;BME280;4676;42.678;23.244;2023-05-09T01:12:34;94350.59;;;11.88;100.00
9277;BME280;4676;42.678;23.244;2023-05-09T01:15:06;94353.81;;;11.92;100.00
9277;BME280;4676;42.678;23.244;2023-05-09T01:17:39;94354.66;;;11.92;100.00
9277;BME280;4676;42.678;23.244;2023-05-09T01:20:14;94353.00;;;11.91;100.00
9277;BME280;4676;42.678;23.244;2023-05-09T01:22:46;94351.28;;;11.92;100.00
9277;BME280;4676;42.678;23.244;2023-05-09T01:28:13;94360.75;;;11.88;100.00
9277;BME280;4676;42.678;23.244;2023-05-09T01:30:45;94358.91;;;11.92;100.00
9277;BME280;4676;42.678;23.244;2023-05-09T01:33:16;94363.03;;;11.94;100.00
9277;BME280;4676;42.678;23.244;2023-05-09T01:35:51;94362.38;;;11.89;100.00
9277;BME280;4676;42.678;23.244;2023-05-09T01:38:21;94359.03;;;11.89;100.00
9277;BME280;4676;42.678;23.244;2023-05-09T01:40:52;94358.63;;;11.78;100.00
9277;BME280;4676;42.678;23.244;2023-05-09T01:43:21;94356.09;;;11.78;100.00
9277;BME280;4676;42.678;23.244;2023-05-09T01:45:50;94357.81;;;11.77;100.00
9277;BME280;4676;42.678;23.244;2023-05-09T01:48:17;94357.22;;;11.71;100.00
9277;BME280;4676;42.678;23.244;2023-05-09T01:50:45;94357.38;;;11.66;100.00
9277;BME280;4676;42.678;23.244;2023-05-09T01:53:12;94359.19;;;11.63;100.00
9277;BME280;4676;42.678;23.244;2023-05-09T01:55:40;94360.91;;;11.62;100.00
9277;BME280;4676;42.678;23.244;2023-05-09T01:58:10;94361.50;;;11.69;100.00
9277;BME280;4676;42.678;23.244;2023-05-09T02:00:41;94364.84;;;11.69;100.00
9277;BME280;4676;42.678;23.244;2023-05-09T02:03:10;94368.28;;;11.68;100.00
9277;BME280;4676;42.678;23.244;2023-05-09T02:05:37;94360.22;;;11.80;100.00
9277;BME280;4676;42.678;23.244;2023-05-09T02:08:05;94365.72;;;11.90;100.00
9277;BME280;4676;42.678;23.244;2023-05-09T02:10:32;94364.81;;;11.92;100.00
9277;BME280;4676;42.678;23.244;2023-05-09T02:13:00;94370.69;;;11.93;100.00
9277;BME280;4676;42.678;23.244;2023-05-09T02:15:28;94366.38;;;11.95;100.00
9277;BME280;4676;42.678;23.244;2023-05-09T02:17:55;94365.25;;;12.02;100.00
9277;BME280;4676;42.678;23.244;2023-05-09T02:20:23;94358.06;;;12.12;100.00
9277;BME280;4676;42.678;23.244;2023-05-09T02:22:50;94363.97;;;12.12;100.00
9277;BME280;4676;42.678;23.244;2023-05-09T02:25:17;94359.41;;;12.20;100.00
9277;BME280;4676;42.678;23.244;2023-05-09T02:27:45;94368.94;;;12.15;100.00
9277;BME280;4676;42.678;23.244;2023-05-09T02:30:15;94372.25;;;12.17;100.00
9277;BME280;4676;42.678;23.244;2023-05-09T02:32:46;94369.44;;;12.23;100.00
9277;BME280;4676;42.678;23.244;2023-05-09T02:35:15;94372.03;;;12.22;100.00
9277;BME280;4676;42.678;23.244;2023-05-09T02:37:44;94371.03;;;12.26;100.00
9277;BME280;4676;42.678;23.244;2023-05-09T02:40:12;94362.66;;;12.24;100.00
9277;BME280;4676;42.678;23.244;2023-05-09T02:42:39;94354.50;;;12.16;100.00
9277;BME280;4676;42.678;23.244;2023-05-09T02:45:07;94364.72;;;12.14;100.00
9277;BME280;4676;42.678;23.244;2023-05-09T02:47:35;94365.94;;;12.06;100.00
9277;BME280;4676;42.678;23.244;2023-05-09T02:50:02;94360.69;;;12.10;100.00
9277;BME280;4676;42.678;23.244;2023-05-09T02:52:29;94365.50;;;12.16;100.00
9277;BME280;4676;42.678;23.244;2023-05-09T02:54:57;94357.22;;;12.11;100.00
9277;BME280;4676;42.678;23.244;2023-05-09T02:57:24;94358.00;;;11.93;100.00
9277;BME280;4676;42.678;23.244;2023-05-09T02:59:51;94359.03;;;11.89;100.00
9277;BME280;4676;42.678;23.244;2023-05-09T03:02:17;94353.34;;;11.82;100.00
9277;BME280;4676;42.678;23.244;2023-05-09T03:04:44;94368.72;;;11.79;100.00
9277;BME280;4676;42.678;23.244;2023-05-09T03:07:11;94368.13;;;11.73;100.00
9277;BME280;4676;42.678;23.244;2023-05-09T03:09:38;94370.19;;;11.63;100.00
9277;BME280;4676;42.678;23.244;2023-05-09T03:12:06;94371.78;;;11.66;100.00
9277;BME280;4676;42.678;23.244;2023-05-09T03:14:33;94365.69;;;11.70;100.00
9277;BME280;4676;42.678;23.244;2023-05-09T03:17:00;94371.38;;;11.76;100.00
9277;BME280;4676;42.678;23.244;2023-05-09T03:19:26;94374.63;;;11.80;100.00
9277;BME280;4676;42.678;23.244;2023-05-09T03:21:53;94379.25;;;11.69;100.00
9277;BME280;4676;42.678;23.244;2023-05-09T03:24:20;94383.47;;;11.70;100.00
9277;BME280;4676;42.678;23.244;2023-05-09T03:26:47;94388.78;;;11.64;100.00
9277;BME280;4676;42.678;23.244;2023-05-09T03:29:15;94394.28;;;11.53;100.00
9277;BME280;4676;42.678;23.244;2023-05-09T03:31:42;94391.63;;;11.56;100.00
9277;BME280;4676;42.678;23.244;2023-05-09T03:34:08;94394.41;;;11.50;100.00
9277;BME280;4676;42.678;23.244;2023-05-09T03:36:39;94398.00;;;11.44;100.00
9277;BME280;4676;42.678;23.244;2023-05-09T03:39:06;94395.34;;;11.47;100.00
9277;BME280;4676;42.678;23.244;2023-05-09T03:41:34;94390.53;;;11.40;100.00
9277;BME280;4676;42.678;23.244;2023-05-09T03:44:01;94402.34;;;11.41;100.00
9277;BME280;4676;42.678;23.244;2023-05-09T03:46:29;94399.81;;;11.41;100.00
9277;BME280;4676;42.678;23.244;2023-05-09T03:48:56;94395.53;;;11.43;100.00
9277;BME280;4676;42.678;23.244;2023-05-09T03:51:22;94403.47;;;11.56;100.00
9277;BME280;4676;42.678;23.244;2023-05-09T03:53:49;94409.38;;;11.56;100.00
9277;BME280;4676;42.678;23.244;2023-05-09T03:56:16;94411.75;;;11.61;100.00
9277;BME280;4676;42.678;23.244;2023-05-09T03:58:43;94415.88;;;11.63;100.00
9277;BME280;4676;42.678;23.244;2023-05-09T04:01:09;94416.50;;;11.68;100.00
9277;BME280;4676;42.678;23.244;2023-05-09T04:03:38;94416.25;;;11.76;100.00
9277;BME280;4676;42.678;23.244;2023-05-09T04:06:05;94398.69;;;11.70;100.00
9277;BME280;4676;42.678;23.244;2023-05-09T04:08:32;94409.75;;;11.90;100.00
9277;BME280;4676;42.678;23.244;2023-05-09T04:10:58;94410.56;;;11.91;100.00
9277;BME280;4676;42.678;23.244;2023-05-09T04:13:25;94414.41;;;12.01;100.00
9277;BME280;4676;42.678;23.244;2023-05-09T04:15:52;94413.13;;;12.11;100.00
9277;BME280;4676;42.678;23.244;2023-05-09T04:18:19;94414.66;;;12.15;100.00
9277;BME280;4676;42.678;23.244;2023-05-09T04:20:47;94414.41;;;12.21;100.00
9277;BME280;4676;42.678;23.244;2023-05-09T04:23:13;94414.72;;;12.34;100.00
9277;BME280;4676;42.678;23.244;2023-05-09T04:25:40;94407.81;;;12.37;100.00
9277;BME280;4676;42.678;23.244;2023-05-09T04:28:07;94416.31;;;12.36;100.00
9277;BME280;4676;42.678;23.244;2023-05-09T04:30:33;94418.69;;;12.41;100.00
9277;BME280;4676;42.678;23.244;2023-05-09T04:33:01;94408.63;;;12.38;100.00
9277;BME280;4676;42.678;23.244;2023-05-09T04:35:28;94414.72;;;12.54;100.00
9277;BME280;4676;42.678;23.244;2023-05-09T04:37:56;94416.06;;;12.63;100.00
9277;BME280;4676;42.678;23.244;2023-05-09T04:40:23;94420.50;;;12.58;100.00
9277;BME280;4676;42.678;23.244;2023-05-09T04:42:49;94412.56;;;12.65;100.00
9277;BME280;4676;42.678;23.244;2023-05-09T04:45:16;94419.91;;;12.71;100.00
9277;BME280;4676;42.678;23.244;2023-05-09T04:47:43;94424.13;;;12.52;100.00
9277;BME280;4676;42.678;23.244;2023-05-09T04:50:10;94421.50;;;12.53;100.00
9277;BME280;4676;42.678;23.244;2023-05-09T04:52:37;94414.66;;;12.56;100.00
9277;BME280;4676;42.678;23.244;2023-05-09T04:55:06;94408.63;;;12.58;100.00
9277;BME280;4676;42.678;23.244;2023-05-09T04:57:32;94415.91;;;12.66;100.00
9277;BME280;4676;42.678;23.244;2023-05-09T04:59:59;94413.75;;;12.57;100.00
9277;BME280;4676;42.678;23.244;2023-05-09T05:02:26;94419.94;;;12.51;100.00
9277;BME280;4676;42.678;23.244;2023-05-09T05:04:53;94421.78;;;12.47;100.00
9277;BME280;4676;42.678;23.244;2023-05-09T05:07:19;94418.84;;;12.57;100.00
9277;BME280;4676;42.678;23.244;2023-05-09T05:09:46;94412.19;;;12.54;100.00
9277;BME280;4676;42.678;23.244;2023-05-09T05:12:14;94416.69;;;12.47;100.00
9277;BME280;4676;42.678;23.244;2023-05-09T05:14:41;94404.03;;;12.46;100.00
9277;BME280;4676;42.678;23.244;2023-05-09T05:17:07;94421.06;;;12.64;100.00
9277;BME280;4676;42.678;23.244;2023-05-09T05:19:34;94416.56;;;12.50;100.00
9277;BME280;4676;42.678;23.244;2023-05-09T05:22:01;94424.25;;;12.49;100.00
9277;BME280;4676;42.678;23.244;2023-05-09T05:24:27;94424.94;;;12.52;100.00
9277;BME280;4676;42.678;23.244;2023-05-09T05:26:54;94419.63;;;12.59;100.00
9277;BME280;4676;42.678;23.244;2023-05-09T05:29:22;94419.63;;;12.77;100.00
9277;BME280;4676;42.678;23.244;2023-05-09T05:31:49;94416.91;;;12.82;100.00
9277;BME280;4676;42.678;23.244;2023-05-09T05:34:15;94429.16;;;12.92;100.00
9277;BME280;4676;42.678;23.244;2023-05-09T05:36:42;94426.00;;;13.06;100.00
9277;BME280;4676;42.678;23.244;2023-05-09T05:39:09;94421.09;;;13.22;100.00
9277;BME280;4676;42.678;23.244;2023-05-09T05:41:35;94421.63;;;13.10;100.00
9277;BME280;4676;42.678;23.244;2023-05-09T05:44:02;94418.56;;;13.22;100.00
9277;BME280;4676;42.678;23.244;2023-05-09T05:46:31;94420.28;;;13.21;100.00
9277;BME280;4676;42.678;23.244;2023-05-09T05:48:57;94415.03;;;13.24;100.00
9277;BME280;4676;42.678;23.244;2023-05-09T05:51:24;94422.53;;;13.27;100.00
9277;BME280;4676;42.678;23.244;2023-05-09T05:53:51;94414.88;;;13.46;100.00
9277;BME280;4676;42.678;23.244;2023-05-09T05:56:17;94372.13;;;13.52;100.00
9277;BME280;4676;42.678;23.244;2023-05-09T05:58:44;94389.56;;;13.79;100.00
9277;BME280;4676;42.678;23.244;2023-05-09T06:01:11;94425.00;;;14.54;100.00
9277;BME280;4676;42.678;23.244;2023-05-09T06:03:39;94422.84;;;14.46;100.00
9277;BME280;4676;42.678;23.244;2023-05-09T06:06:06;94419.06;;;14.53;100.00
9277;BME280;4676;42.678;23.244;2023-05-09T06:08:33;94427.38;;;14.74;100.00
9277;BME280;4676;42.678;23.244;2023-05-09T06:11:00;94431.22;;;14.48;100.00
9277;BME280;4676;42.678;23.244;2023-05-09T06:13:26;94419.91;;;14.36;100.00
9277;BME280;4676;42.678;23.244;2023-05-09T06:15:54;94422.56;;;14.16;100.00
9277;BME280;4676;42.678;23.244;2023-05-09T06:18:21;94422.72;;;14.13;100.00
9277;BME280;4676;42.678;23.244;2023-05-09T06:20:49;94419.50;;;14.10;100.00
9277;BME280;4676;42.678;23.244;2023-05-09T06:23:16;94418.00;;;14.06;100.00
9277;BME280;4676;42.678;23.244;2023-05-09T06:25:46;94416.94;;;13.92;100.00
9277;BME280;4676;42.678;23.244;2023-05-09T06:28:13;94425.25;;;13.79;100.00
9277;BME280;4676;42.678;23.244;2023-05-09T06:33:11;94424.56;;;13.75;100.00
9277;BME280;4676;42.678;23.244;2023-05-09T06:35:38;94422.38;;;13.68;100.00
9277;BME280;4676;42.678;23.244;2023-05-09T06:38:06;94417.22;;;13.50;100.00
9277;BME280;4676;42.678;23.244;2023-05-09T06:40:32;94420.13;;;13.43;100.00
9277;BME280;4676;42.678;23.244;2023-05-09T06:42:59;94422.72;;;13.41;100.00
9277;BME280;4676;42.678;23.244;2023-05-09T06:45:26;94426.94;;;13.42;100.00
9277;BME280;4676;42.678;23.244;2023-05-09T06:47:52;94419.25;;;13.25;100.00
9277;BME280;4676;42.678;23.244;2023-05-09T06:50:19;94419.38;;;13.22;100.00
9277;BME280;4676;42.678;23.244;2023-05-09T06:52:46;94425.06;;;13.27;100.00
9277;BME280;4676;42.678;23.244;2023-05-09T06:55:14;94421.63;;;13.28;100.00
9277;BME280;4676;42.678;23.244;2023-05-09T06:57:41;94417.66;;;13.23;100.00
9277;BME280;4676;42.678;23.244;2023-05-09T07:00:09;94415.31;;;13.37;100.00
9277;BME280;4676;42.678;23.244;2023-05-09T07:02:36;94421.88;;;13.60;100.00
9277;BME280;4676;42.678;23.244;2023-05-09T07:05:06;94423.72;;;13.75;100.00
9277;BME280;4676;42.678;23.244;2023-05-09T07:07:33;94423.59;;;13.78;100.00
9277;BME280;4676;42.678;23.244;2023-05-09T07:10:00;94418.88;;;13.87;100.00
9277;BME280;4676;42.678;23.244;2023-05-09T07:12:31;94412.38;;;13.63;100.00
9277;BME280;4676;42.678;23.244;2023-05-09T07:14:57;94413.91;;;13.67;100.00
9277;BME280;4676;42.678;23.244;2023-05-09T07:17:24;94412.69;;;13.93;100.00
9277;BME280;4676;42.678;23.244;2023-05-09T07:19:51;94418.03;;;13.87;100.00
9277;BME280;4676;42.678;23.244;2023-05-09T07:22:18;94418.44;;;13.96;100.00
9277;BME280;4676;42.678;23.244;2023-05-09T07:24:44;94405.72;;;13.96;100.00
9277;BME280;4676;42.678;23.244;2023-05-09T07:27:11;94426.63;;;14.20;100.00
9277;BME280;4676;42.678;23.244;2023-05-09T07:29:40;94422.06;;;14.27;100.00
9277;BME280;4676;42.678;23.244;2023-05-09T07:32:06;94418.97;;;14.20;100.00
9277;BME280;4676;42.678;23.244;2023-05-09T07:34:33;94417.94;;;14.24;100.00
9277;BME280;4676;42.678;23.244;2023-05-09T07:37:01;94413.66;;;14.25;100.00
9277;BME280;4676;42.678;23.244;2023-05-09T07:39:28;94420.03;;;14.33;100.00
9277;BME280;4676;42.678;23.244;2023-05-09T07:41:54;94419.72;;;14.22;100.00
9277;BME280;4676;42.678;23.244;2023-05-09T07:44:21;94424.91;;;14.21;100.00
9277;BME280;4676;42.678;23.244;2023-05-09T07:46:49;94418.09;;;14.21;100.00
9277;BME280;4676;42.678;23.244;2023-05-09T07:49:16;94419.03;;;14.19;100.00
9277;BME280;4676;42.678;23.244;2023-05-09T07:51:42;94424.09;;;14.20;100.00
9277;BME280;4676;42.678;23.244;2023-05-09T07:54:09;94425.00;;;14.36;100.00
9277;BME280;4676;42.678;23.244;2023-05-09T07:56:36;94419.72;;;14.22;100.00
9277;BME280;4676;42.678;23.244;2023-05-09T07:59:02;94418.72;;;14.08;100.00
9277;BME280;4676;42.678;23.244;2023-05-09T08:01:29;94414.56;;;14.07;100.00
9277;BME280;4676;42.678;23.244;2023-05-09T08:03:57;94417.00;;;14.08;100.00
9277;BME280;4676;42.678;23.244;2023-05-09T08:06:24;94416.28;;;14.06;100.00
9277;BME280;4676;42.678;23.244;2023-05-09T08:08:51;94416.66;;;14.16;100.00
9277;BME280;4676;42.678;23.244;2023-05-09T08:11:18;94410.81;;;14.31;100.00
9277;BME280;4676;42.678;23.244;2023-05-09T08:13:45;94413.88;;;14.20;100.00
9277;BME280;4676;42.678;23.244;2023-05-09T08:16:12;94404.72;;;14.33;100.00
9277;BME280;4676;42.678;23.244;2023-05-09T08:18:41;94415.03;;;14.49;100.00
9277;BME280;4676;42.678;23.244;2023-05-09T08:21:09;94412.47;;;14.66;100.00
9277;BME280;4676;42.678;23.244;2023-05-09T08:23:36;94416.25;;;14.75;100.00
9277;BME280;4676;42.678;23.244;2023-05-09T08:26:03;94406.03;;;14.75;100.00
9277;BME280;4676;42.678;23.244;2023-05-09T08:28:29;94413.41;;;14.81;100.00
9277;BME280;4676;42.678;23.244;2023-05-09T08:30:56;94413.91;;;14.87;100.00
9277;BME280;4676;42.678;23.244;2023-05-09T08:33:23;94407.19;;;14.69;100.00
9277;BME280;4676;42.678;23.244;2023-05-09T08:35:50;94409.03;;;14.83;100.00
9277;BME280;4676;42.678;23.244;2023-05-09T08:38:19;94408.31;;;14.81;100.00
9277;BME280;4676;42.678;23.244;2023-05-09T08:40:45;94416.97;;;14.94;100.00
9277;BME280;4676;42.678;23.244;2023-05-09T08:43:12;94410.31;;;15.07;100.00
9277;BME280;4676;42.678;23.244;2023-05-09T08:45:45;94409.00;;;15.00;100.00
9277;BME280;4676;42.678;23.244;2023-05-09T08:48:14;94408.44;;;15.11;100.00
9277;BME280;4676;42.678;23.244;2023-05-09T08:50:41;94408.75;;;15.05;100.00
9277;BME280;4676;42.678;23.244;2023-05-09T08:53:08;94404.97;;;15.12;100.00
9277;BME280;4676;42.678;23.244;2023-05-09T08:55:37;94414.09;;;14.67;100.00
9277;BME280;4676;42.678;23.244;2023-05-09T08:58:03;94404.72;;;14.68;100.00
9277;BME280;4676;42.678;23.244;2023-05-09T09:00:32;94403.09;;;14.49;100.00
9277;BME280;4676;42.678;23.244;2023-05-09T09:03:00;94405.03;;;14.27;100.00
9277;BME280;4676;42.678;23.244;2023-05-09T09:05:29;94407.94;;;14.02;100.00
9277;BME280;4676;42.678;23.244;2023-05-09T09:07:57;94408.28;;;13.61;100.00
9277;BME280;4676;42.678;23.244;2023-05-09T09:10:25;94408.78;;;13.31;100.00
9277;BME280;4676;42.678;23.244;2023-05-09T09:12:57;94380.91;;;13.10;100.00
9277;BME280;4676;42.678;23.244;2023-05-09T09:15:28;94410.81;;;13.23;100.00
9277;BME280;4676;42.678;23.244;2023-05-09T09:17:57;94406.81;;;13.19;100.00
9277;BME280;4676;42.678;23.244;2023-05-09T09:20:26;94406.84;;;13.18;100.00
9277;BME280;4676;42.678;23.244;2023-05-09T09:22:58;94402.59;;;13.18;100.00
9277;BME280;4676;42.678;23.244;2023-05-09T09:25:26;94412.81;;;13.17;100.00
9277;BME280;4676;42.678;23.244;2023-05-09T09:27:53;94402.66;;;13.17;100.00
9277;BME280;4676;42.678;23.244;2023-05-09T09:30:22;94403.00;;;13.28;100.00
9277;BME280;4676;42.678;23.244;2023-05-09T09:32:50;94412.97;;;13.32;100.00
9277;BME280;4676;42.678;23.244;2023-05-09T09:35:16;94408.03;;;13.29;100.00
9277;BME280;4676;42.678;23.244;2023-05-09T09:37:44;94408.22;;;13.43;100.00
9277;BME280;4676;42.678;23.244;2023-05-09T09:40:11;94407.50;;;13.59;100.00
9277;BME280;4676;42.678;23.244;2023-05-09T09:42:41;94411.75;;;13.58;100.00
9277;BME280;4676;42.678;23.244;2023-05-09T09:45:09;94410.47;;;13.49;100.00
9277;BME280;4676;42.678;23.244;2023-05-09T09:47:39;94414.16;;;13.44;100.00
9277;BME280;4676;42.678;23.244;2023-05-09T09:50:10;94412.69;;;13.38;100.00
9277;BME280;4676;42.678;23.244;2023-05-09T09:52:42;94410.16;;;13.38;100.00
9277;BME280;4676;42.678;23.244;2023-05-09T09:55:09;94417.50;;;13.44;100.00
9277;BME280;4676;42.678;23.244;2023-05-09T09:57:37;94423.06;;;13.52;100.00
9277;BME280;4676;42.678;23.244;2023-05-09T10:00:07;94411.47;;;13.47;100.00
9277;BME280;4676;42.678;23.244;2023-05-09T10:02:34;94399.50;;;13.66;100.00
9277;BME280;4676;42.678;23.244;2023-05-09T10:05:08;94407.13;;;14.02;100.00
9277;BME280;4676;42.678;23.244;2023-05-09T10:07:35;94407.81;;;14.40;100.00
9277;BME280;4676;42.678;23.244;2023-05-09T10:10:02;94402.31;;;14.65;100.00
9277;BME280;4676;42.678;23.244;2023-05-09T10:12:32;94396.84;;;14.72;100.00
9277;BME280;4676;42.678;23.244;2023-05-09T10:15:01;94404.25;;;14.77;100.00
9277;BME280;4676;42.678;23.244;2023-05-09T10:17:30;94384.47;;;14.65;100.00
9277;BME280;4676;42.678;23.244;2023-05-09T10:20:01;94398.16;;;14.79;100.00
9277;BME280;4676;42.678;23.244;2023-05-09T10:22:32;94391.91;;;14.85;100.00
9277;BME280;4676;42.678;23.244;2023-05-09T10:25:02;94395.56;;;14.96;100.00
9277;BME280;4676;42.678;23.244;2023-05-09T10:27:30;94385.56;;;15.09;100.00
9277;BME280;4676;42.678;23.244;2023-05-09T10:30:02;94387.72;;;15.48;100.00
9277;BME280;4676;42.678;23.244;2023-05-09T10:32:35;94387.06;;;15.76;100.00
9277;BME280;4676;42.678;23.244;2023-05-09T10:35:05;94390.41;;;15.92;100.00
9277;BME280;4676;42.678;23.244;2023-05-09T10:37:34;94379.69;;;16.15;100.00
9277;BME280;4676;42.678;23.244;2023-05-09T10:40:02;94386.31;;;16.33;100.00
9277;BME280;4676;42.678;23.244;2023-05-09T10:42:30;94371.81;;;16.48;100.00
9277;BME280;4676;42.678;23.244;2023-05-09T10:44:57;94386.19;;;16.65;97.66
9277;BME280;4676;42.678;23.244;2023-05-09T10:47:24;94392.41;;;16.61;96.56
9277;BME280;4676;42.678;23.244;2023-05-09T10:49:52;94380.13;;;16.52;97.07
9277;BME280;4676;42.678;23.244;2023-05-09T10:52:20;94387.28;;;16.17;95.55
9277;BME280;4676;42.678;23.244;2023-05-09T10:54:57;94379.66;;;16.45;100.00
9277;BME280;4676;42.678;23.244;2023-05-09T10:57:25;94391.69;;;16.59;99.18
9277;BME280;4676;42.678;23.244;2023-05-09T10:59:52;94381.19;;;16.77;100.00
9277;BME280;4676;42.678;23.244;2023-05-09T11:02:20;94385.03;;;16.98;98.39
9277;BME280;4676;42.678;23.244;2023-05-09T11:04:58;94382.50;;;17.39;99.36
9277;BME280;4676;42.678;23.244;2023-05-09T11:07:38;94374.84;;;17.25;94.42
9277;BME280;4676;42.678;23.244;2023-05-09T11:10:13;94383.72;;;17.34;94.01
9277;BME280;4676;42.678;23.244;2023-05-09T11:12:53;94372.00;;;17.44;93.32
9277;BME280;4676;42.678;23.244;2023-05-09T11:15:20;94370.38;;;17.29;88.72
9277;BME280;4676;42.678;23.244;2023-05-09T11:17:50;94374.78;;;17.54;89.60
9277;BME280;4676;42.678;23.244;2023-05-09T11:20:26;94377.50;;;17.38;83.39
9277;BME280;4676;42.678;23.244;2023-05-09T11:22:58;94382.28;;;17.02;87.39
9277;BME280;4676;42.678;23.244;2023-05-09T11:25:28;94389.78;;;16.90;90.86
9277;BME280;4676;42.678;23.244;2023-05-09T11:27:57;94391.00;;;16.85;90.34
9277;BME280;4676;42.678;23.244;2023-05-09T11:30:34;94388.69;;;16.80;92.57
9277;BME280;4676;42.678;23.244;2023-05-09T11:33:01;94377.16;;;16.73;92.37
9277;BME280;4676;42.678;23.244;2023-05-09T11:35:31;94384.88;;;16.43;92.09
9277;BME280;4676;42.678;23.244;2023-05-09T11:38:00;94378.00;;;16.44;93.12
9277;BME280;4676;42.678;23.244;2023-05-09T11:40:29;94377.28;;;16.42;93.53
9277;BME280;4676;42.678;23.244;2023-05-09T11:42:57;94384.50;;;16.35;93.04
9277;BME280;4676;42.678;23.244;2023-05-09T11:45:26;94383.72;;;16.19;96.13
9277;BME280;4676;42.678;23.244;2023-05-09T11:47:52;94379.97;;;16.11;93.11
9277;BME280;4676;42.678;23.244;2023-05-09T11:50:19;94383.25;;;16.13;98.51
9277;BME280;4676;42.678;23.244;2023-05-09T11:52:47;94361.97;;;15.82;96.11
9277;BME280;4676;42.678;23.244;2023-05-09T11:55:15;94378.78;;;15.86;98.72
9277;BME280;4676;42.678;23.244;2023-05-09T11:57:46;94378.56;;;16.05;99.63
9277;BME280;4676;42.678;23.244;2023-05-09T12:00:15;94383.78;;;16.04;98.80
9277;BME280;4676;42.678;23.244;2023-05-09T12:02:43;94374.53;;;16.01;100.00
9277;BME280;4676;42.678;23.244;2023-05-09T12:05:11;94381.78;;;16.09;98.68
9277;BME280;4676;42.678;23.244;2023-05-09T12:07:39;94378.44;;;15.92;95.24
9277;BME280;4676;42.678;23.244;2023-05-09T12:10:08;94377.63;;;15.76;100.00
9277;BME280;4676;42.678;23.244;2023-05-09T12:12:35;94380.59;;;15.84;100.00
9277;BME280;4676;42.678;23.244;2023-05-09T12:15:06;94383.66;;;15.75;100.00
9277;BME280;4676;42.678;23.244;2023-05-09T12:17:33;94377.50;;;15.79;100.00
9277;BME280;4676;42.678;23.244;2023-05-09T12:20:00;94382.56;;;15.95;100.00
9277;BME280;4676;42.678;23.244;2023-05-09T12:22:29;94383.31;;;15.97;100.00
9277;BME280;4676;42.678;23.244;2023-05-09T12:24:56;94377.91;;;16.02;98.34
9277;BME280;4676;42.678;23.244;2023-05-09T12:27:23;94382.25;;;15.70;98.24
9277;BME280;4676;42.678;23.244;2023-05-09T12:29:52;94377.50;;;15.64;100.00
9277;BME280;4676;42.678;23.244;2023-05-09T12:32:20;94373.69;;;15.86;100.00
9277;BME280;4676;42.678;23.244;2023-05-09T12:34:47;94374.22;;;15.91;100.00
9277;BME280;4676;42.678;23.244;2023-05-09T12:37:14;94366.25;;;15.82;99.29
9277;BME280;4676;42.678;23.244;2023-05-09T12:39:51;94366.59;;;15.76;100.00
9277;BME280;4676;42.678;23.244;2023-05-09T12:42:26;94362.09;;;15.65;98.63
9277;BME280;4676;42.678;23.244;2023-05-09T12:44:52;94341.66;;;15.65;99.64
9277;BME280;4676;42.678;23.244;2023-05-09T12:47:21;94363.28;;;15.89;99.92
9277;BME280;4676;42.678;23.244;2023-05-09T12:49:48;94353.44;;;15.97;99.89
9277;BME280;4676;42.678;23.244;2023-05-09T12:52:16;94349.75;;;15.87;100.00
9277;BME280;4676;42.678;23.244;2023-05-09T12:54:45;94348.78;;;15.90;100.00
9277;BME280;4676;42.678;23.244;2023-05-09T12:57:20;94346.06;;;16.07;100.00
9277;BME280;4676;42.678;23.244;2023-05-09T12:59:48;94351.88;;;15.95;100.00
9277;BME280;4676;42.678;23.244;2023-05-09T13:02:14;94346.13;;;15.91;100.00
9277;BME280;4676;42.678;23.244;2023-05-09T13:04:43;94346.88;;;15.78;100.00
9277;BME280;4676;42.678;23.244;2023-05-09T13:07:10;94350.75;;;15.85;100.00
9277;BME280;4676;42.678;23.244;2023-05-09T13:09:53;94355.03;;;15.55;100.00
9277;BME280;4676;42.678;23.244;2023-05-09T13:12:21;94341.91;;;15.29;100.00